sensor_id;sensor_type;location;lat;lon;timestamp;pressure;altitude;pressure_sealevel;temperature;humidity
10688;BME280;5392;42.688;23.298;2024-01-15T00:01:44;94308.53;;;-3.48;75.14
10688;BME280;5392;42.688;23.298;2024-01-15T00:04:10;94319.41;;;-3.38;74.80
10688;BME280;5392;42.688;23.298;2024-01-15T00:06:35;94299.00;;;-3.85;76.75
10688;BME280;5392;42.688;23.298;2024-01-15T00:09:01;94307.84;;;-3.60;75.73
10688;BME280;5392;42.688;23.298;2024-01-15T00:11:27;94309.31;;;-3.57;75.76
10688;BME280;5392;42.688;23.298;2024-01-15T00:13:52;94300.69;;;-3.55;75.42
10688;BME280;5392;42.688;23.298;2024-01-15T00:16:18;94299.91;;;-3.55;75.48
10688;BME280;5392;42.688;23.298;2024-01-15T00:18:43;94300.81;;;-3.66;76.12
10688;BME280;5392;42.688;23.298;2024-01-15T00:21:10;94310.50;;;-3.52;75.58
10688;BME280;5392;42.688;23.298;2024-01-15T00:23:35;94304.75;;;-3.63;75.84
10688;BME280;5392;42.688;23.298;2024-01-15T00:26:01;94307.28;;;-3.63;75.79
10688;BME280;5392;42.688;23.298;2024-01-15T00:28:26;94307.84;;;-3.60;76.37
10688;BME280;5392;42.688;23.298;2024-01-15T00:30:53;94311.94;;;-3.59;76.03
10688;BME280;5392;42.688;23.298;2024-01-15T00:33:19;94309.81;;;-3.63;76.37
10688;BME280;5392;42.688;23.298;2024-01-15T00:35:44;94308.09;;;-3.63;76.64
10688;BME280;5392;42.688;23.298;2024-01-15T00:38:10;94311.94;;;-3.59;77.07
10688;BME280;5392;42.688;23.298;2024-01-15T00:40:35;94304.28;;;-3.48;76.80
10688;BME280;5392;42.688;23.298;2024-01-15T00:43:01;94308.91;;;-3.43;76.27
10688;BME280;5392;42.688;23.298;2024-01-15T00:45:27;94302.25;;;-3.63;77.26
10688;BME280;5392;42.688;23.298;2024-01-15T00:47:52;94299.34;;;-3.59;77.10
10688;BME280;5392;42.688;23.298;2024-01-15T00:50:18;94306.41;;;-3.53;76.85
10688;BME280;5392;42.688;23.298;2024-01-15T00:52:44;94311.16;;;-3.50;76.69
10688;BME280;5392;42.688;23.298;2024-01-15T00:55:09;94310.78;;;-3.45;76.55
10688;BME280;5392;42.688;23.298;2024-01-15T00:57:35;94304.69;;;-3.43;76.50
10688;BME280;5392;42.688;23.298;2024-01-15T01:00:00;94299.91;;;-3.55;77.05
10688;BME280;5392;42.688;23.298;2024-01-15T01:02:26;94303.22;;;-3.45;76.95
10688;BME280;5392;42.688;23.298;2024-01-15T01:04:51;94300.31;;;-3.50;76.89
10688;BME280;5392;42.688;23.298;2024-01-15T01:07:17;94300.59;;;-3.44;76.70
10688;BME280;5392;42.688;23.298;2024-01-15T01:09:42;94299.13;;;-3.37;76.54
10688;BME280;5392;42.688;23.298;2024-01-15T01:12:09;94296.84;;;-3.49;77.03
10688;BME280;5392;42.688;23.298;2024-01-15T01:14:34;94298.47;;;-3.48;77.07
10688;BME280;5392;42.688;23.298;2024-01-15T01:17:00;94297.66;;;-3.49;76.95
10688;BME280;5392;42.688;23.298;2024-01-15T01:19:25;94290.50;;;-3.44;76.53
10688;BME280;5392;42.688;23.298;2024-01-15T01:21:51;94296.44;;;-3.54;77.31
10688;BME280;5392;42.688;23.298;2024-01-15T01:24:16;94292.09;;;-3.43;76.68
10688;BME280;5392;42.688;23.298;2024-01-15T01:26:42;94281.81;;;-3.70;78.10
10688;BME280;5392;42.688;23.298;2024-01-15T01:29:08;94286.09;;;-3.51;76.63
10688;BME280;5392;42.688;23.298;2024-01-15T01:31:33;94280.66;;;-3.56;76.74
10688;BME280;5392;42.688;23.298;2024-01-15T01:33:59;94280.28;;;-3.52;76.68
10688;BME280;5392;42.688;23.298;2024-01-15T01:36:24;94273.34;;;-3.69;77.19
10688;BME280;5392;42.688;23.298;2024-01-15T01:38:50;94272.78;;;-3.73;77.24
10688;BME280;5392;42.688;23.298;2024-01-15T01:41:15;94271.75;;;-3.80;77.93
10688;BME280;5392;42.688;23.298;2024-01-15T01:43:41;94271.34;;;-3.75;77.39
10688;BME280;5392;42.688;23.298;2024-01-15T01:46:06;94263.03;;;-3.66;76.47
10688;BME280;5392;42.688;23.298;2024-01-15T01:48:32;94267.94;;;-3.64;76.73
10688;BME280;5392;42.688;23.298;2024-01-15T01:50:59;94271.34;;;-3.65;77.04
10688;BME280;5392;42.688;23.298;2024-01-15T01:53:26;94266.97;;;-3.63;76.78
10688;BME280;5392;42.688;23.298;2024-01-15T01:55:53;94265.44;;;-4.04;78.23
10688;BME280;5392;42.688;23.298;2024-01-15T01:58:20;94267.47;;;-3.89;77.42
10688;BME280;5392;42.688;23.298;2024-01-15T02:00:46;94262.78;;;-4.03;78.26
10688;BME280;5392;42.688;23.298;2024-01-15T02:03:12;94258.34;;;-4.20;79.49
10688;BME280;5392;42.688;23.298;2024-01-15T02:05:39;94253.34;;;-4.10;79.31
10688;BME280;5392;42.688;23.298;2024-01-15T02:08:04;94253.91;;;-3.97;78.20
10688;BME280;5392;42.688;23.298;2024-01-15T02:10:30;94259.66;;;-3.86;77.57
10688;BME280;5392;42.688;23.298;2024-01-15T02:12:55;94260.06;;;-3.81;77.43
10688;BME280;5392;42.688;23.298;2024-01-15T02:15:21;94250.94;;;-3.72;76.96
10688;BME280;5392;42.688;23.298;2024-01-15T02:18:05;94240.59;;;-3.79;77.10
10688;BME280;5392;42.688;23.298;2024-01-15T02:20:33;94235.91;;;-3.93;77.81
10688;BME280;5392;42.688;23.298;2024-01-15T02:23:08;94234.25;;;-4.13;78.83
10688;BME280;5392;42.688;23.298;2024-01-15T02:25:35;94205.13;;;-4.15;79.21
10688;BME280;5392;42.688;23.298;2024-01-15T02:28:01;94198.16;;;-4.02;79.14
10688;BME280;5392;42.688;23.298;2024-01-15T02:30:28;94191.94;;;-3.98;78.48
10688;BME280;5392;42.688;23.298;2024-01-15T02:32:55;94192.72;;;-3.98;79.06
10688;BME280;5392;42.688;23.298;2024-01-15T02:35:20;94187.03;;;-3.90;78.68
10688;BME280;5392;42.688;23.298;2024-01-15T02:37:46;94196.06;;;-3.78;77.86
10688;BME280;5392;42.688;23.298;2024-01-15T02:40:11;94197.81;;;-3.69;77.59
10688;BME280;5392;42.688;23.298;2024-01-15T02:42:37;94195.16;;;-3.67;77.27
10688;BME280;5392;42.688;23.298;2024-01-15T02:45:03;94196.59;;;-3.65;77.08
10688;BME280;5392;42.688;23.298;2024-01-15T02:47:28;94198.34;;;-3.56;76.73
10688;BME280;5392;42.688;23.298;2024-01-15T02:49:54;94200.22;;;-3.48;76.41
10688;BME280;5392;42.688;23.298;2024-01-15T02:52:20;94204.03;;;-3.54;76.48
10688;BME280;5392;42.688;23.298;2024-01-15T02:54:45;94201.78;;;-3.47;76.36
10688;BME280;5392;42.688;23.298;2024-01-15T02:57:11;94198.34;;;-3.56;76.63
10688;BME280;5392;42.688;23.298;2024-01-15T02:59:36;94182.69;;;-3.50;76.66
10688;BME280;5392;42.688;23.298;2024-01-15T03:02:02;94192.09;;;-3.52;76.36
10688;BME280;5392;42.688;23.298;2024-01-15T03:04:27;94182.84;;;-3.42;76.11
10688;BME280;5392;42.688;23.298;2024-01-15T03:06:52;94197.69;;;-3.39;75.54
10688;BME280;5392;42.688;23.298;2024-01-15T03:09:18;94201.00;;;-3.57;75.64
10688;BME280;5392;42.688;23.298;2024-01-15T03:11:43;94189.84;;;-3.64;76.35
10688;BME280;5392;42.688;23.298;2024-01-15T03:14:09;94193.81;;;-3.72;76.05
10688;BME280;5392;42.688;23.298;2024-01-15T03:16:34;94187.47;;;-3.76;76.08
10688;BME280;5392;42.688;23.298;2024-01-15T03:19:01;94184.00;;;-3.75;75.92
10688;BME280;5392;42.688;23.298;2024-01-15T03:21:26;94189.03;;;-3.75;75.93
10688;BME280;5392;42.688;23.298;2024-01-15T03:23:52;94177.34;;;-3.95;76.94
10688;BME280;5392;42.688;23.298;2024-01-15T03:26:17;94175.66;;;-3.85;76.81
10688;BME280;5392;42.688;23.298;2024-01-15T03:28:43;94172.06;;;-3.73;76.27
10688;BME280;5392;42.688;23.298;2024-01-15T03:31:08;94162.56;;;-3.69;76.14
10688;BME280;5392;42.688;23.298;2024-01-15T03:33:34;94166.91;;;-3.81;76.86
10688;BME280;5392;42.688;23.298;2024-01-15T03:35:59;94177.13;;;-3.63;76.40
10688;BME280;5392;42.688;23.298;2024-01-15T03:38:29;94173.16;;;-3.56;76.05
10688;BME280;5392;42.688;23.298;2024-01-15T03:40:55;94169.59;;;-3.44;75.07
10688;BME280;5392;42.688;23.298;2024-01-15T03:43:21;94171.16;;;-3.43;74.48
10688;BME280;5392;42.688;23.298;2024-01-15T03:45:47;94166.53;;;-3.47;74.51
10688;BME280;5392;42.688;23.298;2024-01-15T03:48:13;94161.38;;;-3.55;75.08
10688;BME280;5392;42.688;23.298;2024-01-15T03:50:38;94173.31;;;-3.57;76.05
10688;BME280;5392;42.688;23.298;2024-01-15T03:53:04;94164.28;;;-3.60;76.03
10688;BME280;5392;42.688;23.298;2024-01-15T03:55:29;94169.97;;;-3.58;76.29
10688;BME280;5392;42.688;23.298;2024-01-15T03:57:55;94168.50;;;-3.60;75.70
10688;BME280;5392;42.688;23.298;2024-01-15T04:00:20;94168.66;;;-3.62;75.18
10688;BME280;5392;42.688;23.298;2024-01-15T04:02:46;94167.47;;;-3.58;75.03
10688;BME280;5392;42.688;23.298;2024-01-15T04:05:11;94154.63;;;-3.55;75.10
10688;BME280;5392;42.688;23.298;2024-01-15T04:07:38;94145.31;;;-3.54;74.87
10688;BME280;5392;42.688;23.298;2024-01-15T04:10:04;94144.66;;;-3.66;75.14
10688;BME280;5392;42.688;23.298;2024-01-15T04:12:29;94149.00;;;-3.68;75.03
10688;BME280;5392;42.688;23.298;2024-01-15T04:14:55;94152.63;;;-3.71;75.35
10688;BME280;5392;42.688;23.298;2024-01-15T04:17:20;94144.66;;;-3.76;75.48
10688;BME280;5392;42.688;23.298;2024-01-15T04:19:46;94147.31;;;-3.87;75.63
10688;BME280;5392;42.688;23.298;2024-01-15T04:22:13;94152.84;;;-3.93;76.19
10688;BME280;5392;42.688;23.298;2024-01-15T04:24:39;94142.00;;;-3.84;76.29
10688;BME280;5392;42.688;23.298;2024-01-15T04:27:05;94148.91;;;-3.76;75.36
10688;BME280;5392;42.688;23.298;2024-01-15T04:29:30;94153.28;;;-3.78;75.65
10688;BME280;5392;42.688;23.298;2024-01-15T04:31:56;94152.31;;;-3.77;75.60
10688;BME280;5392;42.688;23.298;2024-01-15T04:34:21;94150.19;;;-3.82;76.14
10688;BME280;5392;42.688;23.298;2024-01-15T04:36:47;94149.03;;;-3.78;76.03
10688;BME280;5392;42.688;23.298;2024-01-15T04:39:12;94149.16;;;-3.79;76.16
10688;BME280;5392;42.688;23.298;2024-01-15T04:41:38;94150.47;;;-3.85;76.46
10688;BME280;5392;42.688;23.298;2024-01-15T04:44:03;94136.28;;;-4.05;77.22
10688;BME280;5392;42.688;23.298;2024-01-15T04:46:29;94142.22;;;-4.06;77.54
10688;BME280;5392;42.688;23.298;2024-01-15T04:48:54;94132.69;;;-3.93;76.63
10688;BME280;5392;42.688;23.298;2024-01-15T04:51:20;94136.56;;;-3.89;76.79
10688;BME280;5392;42.688;23.298;2024-01-15T04:53:45;94135.78;;;-3.89;77.13
10688;BME280;5392;42.688;23.298;2024-01-15T04:56:11;94130.06;;;-4.01;77.56
10688;BME280;5392;42.688;23.298;2024-01-15T04:58:36;94121.59;;;-4.00;77.65
10688;BME280;5392;42.688;23.298;2024-01-15T05:01:02;94117.34;;;-3.90;77.01
10688;BME280;5392;42.688;23.298;2024-01-15T05:03:29;94126.50;;;-3.89;76.21
10688;BME280;5392;42.688;23.298;2024-01-15T05:05:55;94126.34;;;-3.97;75.74
10688;BME280;5392;42.688;23.298;2024-01-15T05:08:20;94129.66;;;-4.06;76.07
10688;BME280;5392;42.688;23.298;2024-01-15T05:10:47;94113.09;;;-4.08;76.32
10688;BME280;5392;42.688;23.298;2024-01-15T05:13:12;94112.41;;;-4.10;76.78
10688;BME280;5392;42.688;23.298;2024-01-15T05:15:38;94117.47;;;-4.10;77.27
10688;BME280;5392;42.688;23.298;2024-01-15T05:18:04;94115.06;;;-4.12;77.22
10688;BME280;5392;42.688;23.298;2024-01-15T05:20:29;94117.06;;;-4.15;77.54
10688;BME280;5392;42.688;23.298;2024-01-15T05:22:55;94117.84;;;-4.15;77.93
10688;BME280;5392;42.688;23.298;2024-01-15T05:25:20;94117.97;;;-4.16;78.10
10688;BME280;5392;42.688;23.298;2024-01-15T05:27:46;94120.19;;;-4.32;78.68
10688;BME280;5392;42.688;23.298;2024-01-15T05:30:11;94128.94;;;-4.36;79.08
10688;BME280;5392;42.688;23.298;2024-01-15T05:32:37;94113.19;;;-4.38;79.49
10688;BME280;5392;42.688;23.298;2024-01-15T05:35:03;94109.50;;;-4.25;78.21
10688;BME280;5392;42.688;23.298;2024-01-15T05:37:28;94101.31;;;-4.17;77.65
10688;BME280;5392;42.688;23.298;2024-01-15T05:39:54;94107.72;;;-4.44;78.62
10688;BME280;5392;42.688;23.298;2024-01-15T05:42:19;94112.91;;;-4.45;79.36
10688;BME280;5392;42.688;23.298;2024-01-15T05:44:45;94111.97;;;-4.44;79.37
10688;BME280;5392;42.688;23.298;2024-01-15T05:47:10;94104.59;;;-4.26;78.94
10688;BME280;5392;42.688;23.298;2024-01-15T05:49:36;94099.97;;;-4.12;78.67
10688;BME280;5392;42.688;23.298;2024-01-15T05:52:01;94086.47;;;-4.20;78.95
10688;BME280;5392;42.688;23.298;2024-01-15T05:54:27;94088.47;;;-4.05;78.62
10688;BME280;5392;42.688;23.298;2024-01-15T05:56:52;94087.53;;;-3.94;78.06
10688;BME280;5392;42.688;23.298;2024-01-15T05:59:18;94096.16;;;-4.06;78.57
10688;BME280;5392;42.688;23.298;2024-01-15T06:01:43;94099.59;;;-3.88;77.98
10688;BME280;5392;42.688;23.298;2024-01-15T06:04:09;94111.28;;;-3.78;77.40
10688;BME280;5392;42.688;23.298;2024-01-15T06:06:34;94083.06;;;-3.91;78.00
10688;BME280;5392;42.688;23.298;2024-01-15T06:09:00;94107.81;;;-3.77;77.71
10688;BME280;5392;42.688;23.298;2024-01-15T06:11:31;94102.91;;;-3.68;77.21
10688;BME280;5392;42.688;23.298;2024-01-15T06:13:57;94101.47;;;-3.71;76.05
10688;BME280;5392;42.688;23.298;2024-01-15T06:16:23;94102.09;;;-3.79;75.45
10688;BME280;5392;42.688;23.298;2024-01-15T06:18:49;94090.31;;;-3.78;75.52
10688;BME280;5392;42.688;23.298;2024-01-15T06:21:16;94095.75;;;-3.54;75.27
10688;BME280;5392;42.688;23.298;2024-01-15T06:23:41;94084.63;;;-3.15;74.52
10688;BME280;5392;42.688;23.298;2024-01-15T06:26:07;94080.00;;;-2.73;73.12
10688;BME280;5392;42.688;23.298;2024-01-15T06:28:32;94078.78;;;-2.42;71.75
10688;BME280;5392;42.688;23.298;2024-01-15T06:30:58;94080.97;;;-2.29;71.82
10688;BME280;5392;42.688;23.298;2024-01-15T06:33:24;94088.97;;;-2.16;71.24
10688;BME280;5392;42.688;23.298;2024-01-15T06:35:50;94095.25;;;-2.02;70.23
10688;BME280;5392;42.688;23.298;2024-01-15T06:38:15;94089.34;;;-1.76;69.72
10688;BME280;5392;42.688;23.298;2024-01-15T06:40:41;94079.97;;;-0.97;67.70
10688;BME280;5392;42.688;23.298;2024-01-15T06:43:14;94090.09;;;-0.21;64.66
10688;BME280;5392;42.688;23.298;2024-01-15T06:45:43;94082.22;;;-0.02;62.92
10688;BME280;5392;42.688;23.298;2024-01-15T06:48:09;94080.97;;;0.10;62.76
10688;BME280;5392;42.688;23.298;2024-01-15T06:50:35;94085.25;;;0.10;63.15
10688;BME280;5392;42.688;23.298;2024-01-15T06:53:01;94088.59;;;0.18;63.10
10688;BME280;5392;42.688;23.298;2024-01-15T06:55:27;94096.66;;;0.06;62.75
10688;BME280;5392;42.688;23.298;2024-01-15T06:57:53;94093.78;;;-0.08;63.49
10688;BME280;5392;42.688;23.298;2024-01-15T07:00:19;94104.28;;;-0.36;64.24
10688;BME280;5392;42.688;23.298;2024-01-15T07:02:45;94103.72;;;-0.14;63.70
10688;BME280;5392;42.688;23.298;2024-01-15T07:05:10;94101.84;;;-0.04;63.73
10688;BME280;5392;42.688;23.298;2024-01-15T07:07:36;94098.34;;;-0.11;63.37
10688;BME280;5392;42.688;23.298;2024-01-15T07:10:02;94099.00;;;-0.09;64.04
10688;BME280;5392;42.688;23.298;2024-01-15T07:12:29;94097.56;;;-0.12;64.04
10688;BME280;5392;42.688;23.298;2024-01-15T07:14:56;94110.69;;;-0.16;63.58
10688;BME280;5392;42.688;23.298;2024-01-15T07:17:21;94110.75;;;-0.42;63.79
10688;BME280;5392;42.688;23.298;2024-01-15T07:19:47;94110.44;;;-0.39;64.61
10688;BME280;5392;42.688;23.298;2024-01-15T07:22:12;94098.00;;;-0.66;64.74
10688;BME280;5392;42.688;23.298;2024-01-15T07:24:38;94105.84;;;-0.77;65.45
10688;BME280;5392;42.688;23.298;2024-01-15T07:27:04;94095.69;;;-0.85;66.45
10688;BME280;5392;42.688;23.298;2024-01-15T07:29:30;94096.06;;;-0.98;66.85
10688;BME280;5392;42.688;23.298;2024-01-15T07:31:58;94085.69;;;-0.87;66.61
10688;BME280;5392;42.688;23.298;2024-01-15T07:34:23;94084.44;;;-0.83;67.27
10688;BME280;5392;42.688;23.298;2024-01-15T07:36:49;94084.97;;;-0.79;67.03
10688;BME280;5392;42.688;23.298;2024-01-15T07:39:14;94078.47;;;-0.82;66.79
10688;BME280;5392;42.688;23.298;2024-01-15T07:41:40;94089.78;;;-0.94;66.29
10688;BME280;5392;42.688;23.298;2024-01-15T07:44:05;94097.88;;;-0.90;66.20
10688;BME280;5392;42.688;23.298;2024-01-15T07:46:31;94092.00;;;-0.91;66.09
10688;BME280;5392;42.688;23.298;2024-01-15T07:48:57;94092.84;;;-0.82;66.63
10688;BME280;5392;42.688;23.298;2024-01-15T07:51:24;94099.25;;;-0.70;66.56
10688;BME280;5392;42.688;23.298;2024-01-15T07:53:52;94109.56;;;-0.55;66.24
10688;BME280;5392;42.688;23.298;2024-01-15T07:56:18;94103.41;;;-0.53;66.32
10688;BME280;5392;42.688;23.298;2024-01-15T07:58:43;94085.00;;;-1.48;67.77
10688;BME280;5392;42.688;23.298;2024-01-15T08:01:09;94070.00;;;-1.24;68.65
10688;BME280;5392;42.688;23.298;2024-01-15T08:03:35;94052.53;;;-0.76;66.69
10688;BME280;5392;42.688;23.298;2024-01-15T08:06:00;94063.41;;;-1.42;69.22
10688;BME280;5392;42.688;23.298;2024-01-15T08:08:25;94068.88;;;-0.70;68.31
10688;BME280;5392;42.688;23.298;2024-01-15T08:10:54;94080.28;;;-0.66;65.55
10688;BME280;5392;42.688;23.298;2024-01-15T08:13:20;94090.66;;;-0.35;65.72
10688;BME280;5392;42.688;23.298;2024-01-15T08:15:46;94088.88;;;-0.01;65.54
10688;BME280;5392;42.688;23.298;2024-01-15T08:18:12;94095.25;;;0.19;64.49
10688;BME280;5392;42.688;23.298;2024-01-15T08:20:38;94090.03;;;0.37;63.21
10688;BME280;5392;42.688;23.298;2024-01-15T08:23:04;94092.09;;;0.49;63.20
10688;BME280;5392;42.688;23.298;2024-01-15T08:25:29;94103.19;;;0.72;62.40
10688;BME280;5392;42.688;23.298;2024-01-15T08:27:56;94110.19;;;0.87;61.27
10688;BME280;5392;42.688;23.298;2024-01-15T08:30:22;94100.03;;;0.62;61.54
10688;BME280;5392;42.688;23.298;2024-01-15T08:32:51;94094.66;;;0.73;62.76
10688;BME280;5392;42.688;23.298;2024-01-15T08:35:17;94078.47;;;0.74;61.30
10688;BME280;5392;42.688;23.298;2024-01-15T08:37:42;94077.13;;;1.19;60.60
10688;BME280;5392;42.688;23.298;2024-01-15T08:40:08;94063.50;;;1.12;59.45
10688;BME280;5392;42.688;23.298;2024-01-15T08:42:35;94066.25;;;1.49;60.99
10688;BME280;5392;42.688;23.298;2024-01-15T08:45:00;94062.41;;;1.92;59.10
10688;BME280;5392;42.688;23.298;2024-01-15T08:47:26;94056.81;;;2.19;58.21
10688;BME280;5392;42.688;23.298;2024-01-15T08:49:53;94067.16;;;2.40;58.49
10688;BME280;5392;42.688;23.298;2024-01-15T08:52:18;94065.06;;;2.44;57.35
10688;BME280;5392;42.688;23.298;2024-01-15T08:54:45;94055.69;;;2.44;56.74
10688;BME280;5392;42.688;23.298;2024-01-15T08:57:10;94049.25;;;2.56;57.55
10688;BME280;5392;42.688;23.298;2024-01-15T08:59:36;94041.97;;;2.68;56.63
10688;BME280;5392;42.688;23.298;2024-01-15T09:02:03;94029.44;;;0.98;60.72
10688;BME280;5392;42.688;23.298;2024-01-15T09:04:29;94037.16;;;1.13;59.62
10688;BME280;5392;42.688;23.298;2024-01-15T09:06:54;94031.28;;;1.59;59.89
10688;BME280;5392;42.688;23.298;2024-01-15T09:09:20;94023.41;;;1.77;59.67
10688;BME280;5392;42.688;23.298;2024-01-15T09:11:45;94016.38;;;1.87;59.89
10688;BME280;5392;42.688;23.298;2024-01-15T09:14:11;94001.69;;;1.97;59.19
10688;BME280;5392;42.688;23.298;2024-01-15T09:16:36;93986.09;;;2.00;58.12
10688;BME280;5392;42.688;23.298;2024-01-15T09:19:03;93997.69;;;2.02;58.48
10688;BME280;5392;42.688;23.298;2024-01-15T09:21:29;93992.31;;;1.97;58.75
10688;BME280;5392;42.688;23.298;2024-01-15T09:23:54;93984.47;;;2.07;57.77
10688;BME280;5392;42.688;23.298;2024-01-15T09:26:20;93976.25;;;2.19;58.14
10688;BME280;5392;42.688;23.298;2024-01-15T09:28:45;93968.41;;;2.29;57.77
10688;BME280;5392;42.688;23.298;2024-01-15T09:31:11;93972.69;;;2.29;57.26
10688;BME280;5392;42.688;23.298;2024-01-15T09:33:36;93977.06;;;2.20;57.13
10688;BME280;5392;42.688;23.298;2024-01-15T09:36:03;93973.00;;;2.11;56.81
10688;BME280;5392;42.688;23.298;2024-01-15T09:38:31;93965.59;;;1.79;58.06
10688;BME280;5392;42.688;23.298;2024-01-15T09:40:57;93963.66;;;1.58;57.61
10688;BME280;5392;42.688;23.298;2024-01-15T09:43:22;93956.56;;;1.54;58.54
10688;BME280;5392;42.688;23.298;2024-01-15T09:45:49;93952.13;;;1.47;59.93
10688;BME280;5392;42.688;23.298;2024-01-15T09:48:15;93932.47;;;1.50;58.79
10688;BME280;5392;42.688;23.298;2024-01-15T09:50:42;93939.31;;;1.41;59.26
10688;BME280;5392;42.688;23.298;2024-01-15T09:53:09;93926.34;;;1.36;59.41
10688;BME280;5392;42.688;23.298;2024-01-15T09:55:36;93928.03;;;1.43;60.09
10688;BME280;5392;42.688;23.298;2024-01-15T09:58:03;93903.16;;;1.39;59.90
10688;BME280;5392;42.688;23.298;2024-01-15T10:00:29;93912.91;;;1.50;59.50
10688;BME280;5392;42.688;23.298;2024-01-15T10:02:58;93915.31;;;1.52;59.96
10688;BME280;5392;42.688;23.298;2024-01-15T10:05:26;93915.44;;;1.50;58.56
10688;BME280;5392;42.688;23.298;2024-01-15T10:07:53;93915.41;;;1.58;58.24
10688;BME280;5392;42.688;23.298;2024-01-15T10:10:20;93910.97;;;1.60;57.28
10688;BME280;5392;42.688;23.298;2024-01-15T10:12:47;93898.06;;;1.62;58.06
10688;BME280;5392;42.688;23.298;2024-01-15T10:15:13;93892.72;;;1.79;58.12
10688;BME280;5392;42.688;23.298;2024-01-15T10:17:39;93892.44;;;2.11;57.56
10688;BME280;5392;42.688;23.298;2024-01-15T10:20:09;93882.66;;;2.38;55.72
10688;BME280;5392;42.688;23.298;2024-01-15T10:22:35;93886.44;;;2.42;54.08
10688;BME280;5392;42.688;23.298;2024-01-15T10:25:04;93877.09;;;2.19;55.25
10688;BME280;5392;42.688;23.298;2024-01-15T10:27:30;93861.69;;;2.50;54.25
10688;BME280;5392;42.688;23.298;2024-01-15T10:29:59;93873.72;;;2.85;53.12
10688;BME280;5392;42.688;23.298;2024-01-15T10:32:25;93858.72;;;3.12;52.42
10688;BME280;5392;42.688;23.298;2024-01-15T10:34:52;93869.38;;;3.01;52.38
10688;BME280;5392;42.688;23.298;2024-01-15T10:37:18;93848.94;;;2.94;52.15
10688;BME280;5392;42.688;23.298;2024-01-15T10:39:43;93853.97;;;2.87;52.98
10688;BME280;5392;42.688;23.298;2024-01-15T10:42:09;93859.94;;;2.51;53.24
10688;BME280;5392;42.688;23.298;2024-01-15T10:44:35;93869.16;;;2.66;53.11
10688;BME280;5392;42.688;23.298;2024-01-15T10:47:01;93862.41;;;1.92;54.12
10688;BME280;5392;42.688;23.298;2024-01-15T10:49:26;93856.66;;;1.61;55.81
10688;BME280;5392;42.688;23.298;2024-01-15T10:51:53;93846.47;;;1.84;55.83
10688;BME280;5392;42.688;23.298;2024-01-15T10:54:20;93827.41;;;2.46;54.56
10688;BME280;5392;42.688;23.298;2024-01-15T10:56:46;93839.97;;;2.98;52.52
10688;BME280;5392;42.688;23.298;2024-01-15T10:59:13;93841.25;;;2.44;52.86
10688;BME280;5392;42.688;23.298;2024-01-15T11:01:38;93831.13;;;2.79;53.16
10688;BME280;5392;42.688;23.298;2024-01-15T11:04:05;93840.31;;;3.31;51.41
10688;BME280;5392;42.688;23.298;2024-01-15T11:06:48;93830.69;;;3.47;51.72
10688;BME280;5392;42.688;23.298;2024-01-15T11:09:15;93825.00;;;3.94;50.28
10688;BME280;5392;42.688;23.298;2024-01-15T11:11:46;93814.22;;;3.92;49.54
10688;BME280;5392;42.688;23.298;2024-01-15T11:14:49;93816.66;;;3.79;49.59
10688;BME280;5392;42.688;23.298;2024-01-15T11:17:16;93812.84;;;2.55;52.84
10688;BME280;5392;42.688;23.298;2024-01-15T11:19:42;93808.53;;;2.70;53.00
10688;BME280;5392;42.688;23.298;2024-01-15T11:22:09;93802.41;;;2.64;53.55
10688;BME280;5392;42.688;23.298;2024-01-15T11:24:38;93803.66;;;3.74;50.96
10688;BME280;5392;42.688;23.298;2024-01-15T11:27:05;93804.16;;;4.46;49.71
10688;BME280;5392;42.688;23.298;2024-01-15T11:29:33;93794.66;;;4.81;47.54
10688;BME280;5392;42.688;23.298;2024-01-15T11:32:03;93794.75;;;5.07;47.52
10688;BME280;5392;42.688;23.298;2024-01-15T11:37:16;93785.41;;;5.47;47.45
10688;BME280;5392;42.688;23.298;2024-01-15T11:39:42;93788.34;;;5.76;46.19
10688;BME280;5392;42.688;23.298;2024-01-15T11:42:10;93775.00;;;5.87;45.61
10688;BME280;5392;42.688;23.298;2024-01-15T11:44:36;93776.97;;;5.92;45.45
10688;BME280;5392;42.688;23.298;2024-01-15T11:47:03;93778.13;;;6.16;45.30
10688;BME280;5392;42.688;23.298;2024-01-15T11:52:18;93772.34;;;6.46;43.15
10688;BME280;5392;42.688;23.298;2024-01-15T11:55:11;93766.66;;;6.38;42.76
10688;BME280;5392;42.688;23.298;2024-01-15T12:00:10;93766.84;;;6.36;44.09
10688;BME280;5392;42.688;23.298;2024-01-15T12:02:38;93768.88;;;6.08;45.28
10688;BME280;5392;42.688;23.298;2024-01-15T12:05:03;93744.88;;;5.83;44.99
10688;BME280;5392;42.688;23.298;2024-01-15T12:07:29;93759.66;;;5.68;46.21
10688;BME280;5392;42.688;23.298;2024-01-15T12:09:54;93764.53;;;5.69;45.44
10688;BME280;5392;42.688;23.298;2024-01-15T12:12:39;93751.97;;;5.68;46.23
10688;BME280;5392;42.688;23.298;2024-01-15T12:15:11;93743.94;;;5.58;46.15
10688;BME280;5392;42.688;23.298;2024-01-15T12:17:36;93732.13;;;5.24;46.92
10688;BME280;5392;42.688;23.298;2024-01-15T12:20:04;93729.72;;;5.23;46.76
10688;BME280;5392;42.688;23.298;2024-01-15T12:22:30;93733.66;;;5.12;47.11
10688;BME280;5392;42.688;23.298;2024-01-15T12:24:55;93733.88;;;5.17;47.32
10688;BME280;5392;42.688;23.298;2024-01-15T12:27:21;93737.22;;;5.24;48.72
10688;BME280;5392;42.688;23.298;2024-01-15T12:29:47;93739.78;;;5.31;47.63
10688;BME280;5392;42.688;23.298;2024-01-15T12:32:12;93736.63;;;5.29;47.91
10688;BME280;5392;42.688;23.298;2024-01-15T12:34:38;93727.38;;;5.34;47.94
10688;BME280;5392;42.688;23.298;2024-01-15T12:37:04;93721.31;;;5.22;46.86
10688;BME280;5392;42.688;23.298;2024-01-15T12:39:29;93707.94;;;5.40;47.52
10688;BME280;5392;42.688;23.298;2024-01-15T12:41:55;93714.22;;;5.63;48.86
10688;BME280;5392;42.688;23.298;2024-01-15T12:44:20;93705.16;;;5.80;47.97
10688;BME280;5392;42.688;23.298;2024-01-15T12:46:46;93706.16;;;5.86;46.54
10688;BME280;5392;42.688;23.298;2024-01-15T12:49:13;93709.28;;;5.75;46.77
10688;BME280;5392;42.688;23.298;2024-01-15T12:51:41;93716.00;;;5.30;49.04
10688;BME280;5392;42.688;23.298;2024-01-15T12:54:06;93715.03;;;5.38;48.17
10688;BME280;5392;42.688;23.298;2024-01-15T12:56:31;93702.41;;;5.10;48.23
10688;BME280;5392;42.688;23.298;2024-01-15T12:58:57;93701.63;;;5.09;49.39
10688;BME280;5392;42.688;23.298;2024-01-15T13:01:22;93696.72;;;5.34;49.11
10688;BME280;5392;42.688;23.298;2024-01-15T13:03:48;93703.63;;;5.53;49.03
10688;BME280;5392;42.688;23.298;2024-01-15T13:06:13;93705.56;;;5.51;48.73
10688;BME280;5392;42.688;23.298;2024-01-15T13:08:39;93692.81;;;5.58;49.01